Time;durP1;ratioP1;P1;durP2;ratioP2;P2;SDS_P1;SDS_P2;PMS_P1;PMS_P2;Temp;Humidity;BMP_temperature;BMP_pressure;BME280_temperature;BME280_humidity;BME280_pressure;Samples;Min_cycle;Max_cycle;Signal;HPM_P1;HPM_P2
2024/01/14 00:01:15;;;;;;;0.75;0.75;;;;;;;-1.38;86.83;97046.22;4935949;29;20052;-74
2024/01/14 00:03:43;;;;;;;1.10;1.10;;;;;;;-1.33;86.55;97046.63;4935094;29;20054;-74
2024/01/14 00:06:11;;;;;;;0.88;0.88;;;;;;;-1.32;86.43;97050.91;4935050;28;20081;-74
2024/01/14 00:08:40;;;;;;;0.95;0.95;;;;;;;-1.31;85.95;97047.31;4943187;29;20040;-74
2024/01/14 00:11:08;;;;;;;1.15;1.15;;;;;;;-1.28;85.71;97054.91;4933609;29;20040;-74
2024/01/14 00:13:36;;;;;;;1.20;1.20;;;;;;;-1.28;85.83;97046.22;4945702;29;20051;-74
2024/01/14 00:16:03;;;;;;;0.70;0.70;;;;;;;-1.32;86.02;97037.81;4941595;29;20055;-73
2024/01/14 00:18:31;;;;;;;1.17;1.17;;;;;;;-1.32;85.80;97050.91;4951241;29;20058;-73
2024/01/14 00:20:59;;;;;;;0.75;0.75;;;;;;;-1.32;85.92;97031.75;4945443;29;20059;-74
2024/01/14 00:23:26;;;;;;;1.20;1.20;;;;;;;-1.29;85.92;97024.47;4936823;29;20035;-74
2024/01/14 00:25:56;;;;;;;0.35;0.35;;;;;;;-1.32;86.21;97027.34;4937837;28;20392;-72
2024/01/14 00:28:23;;;;;;;1.02;1.02;;;;;;;-1.31;86.14;97020.31;4937431;29;20040;-72
2024/01/14 00:30:51;;;;;;;1.20;1.20;;;;;;;-1.29;86.12;97021.03;4940849;29;20516;-73
2024/01/14 00:33:19;;;;;;;0.40;0.40;;;;;;;-1.34;86.33;97010.94;4939171;29;20404;-73
2024/01/14 00:35:46;;;;;;;1.23;1.23;;;;;;;-1.35;86.31;97011.91;4950002;28;20499;-73
2024/01/14 00:38:15;;;;;;;1.13;1.13;;;;;;;-1.38;86.74;97017.44;4939368;29;20046;-73
2024/01/14 00:40:42;;;;;;;1.08;1.08;;;;;;;-1.35;86.86;97011.09;4937041;29;20039;-72
2024/01/14 00:43:11;;;;;;;1.05;1.05;;;;;;;-1.32;86.94;97013.44;4936109;29;20106;-73
2024/01/14 00:45:39;;;;;;;1.40;1.40;;;;;;;-1.25;86.71;97009.31;4939809;28;20047;-73
2024/01/14 00:48:07;;;;;;;0.95;0.95;;;;;;;-1.33;86.81;96996.06;4934409;29;20055;-72
2024/01/14 00:50:34;;;;;;;0.95;0.95;;;;;;;-1.40;87.71;96993.19;4933453;29;20044;-72
2024/01/14 00:53:02;;;;;;;1.45;1.45;;;;;;;-1.42;87.90;96991.66;4943933;29;20106;-72
2024/01/14 00:55:30;;;;;;;0.70;0.70;;;;;;;-1.48;87.73;96999.09;4942712;28;20047;-74
2024/01/14 00:58:00;;;;;;;1.05;1.05;;;;;;;-1.44;88.26;96991.78;4933433;29;20076;-73
2024/01/14 01:00:30;;;;;;;1.52;1.52;;;;;;;-1.44;88.43;96978.69;4939834;29;20075;-72
2024/01/14 01:02:58;;;;;;;1.15;1.15;;;;;;;-1.40;88.31;96980.09;4937599;29;20040;-73
2024/01/14 01:05:25;;;;;;;1.17;1.17;;;;;;;-1.36;88.12;96983.28;4943646;28;20123;-72
2024/01/14 01:07:53;;;;;;;0.30;0.30;;;;;;;-1.41;88.63;96975.81;4943467;29;20464;-72
2024/01/14 01:10:21;;;;;;;1.00;1.00;;;;;;;-1.38;88.46;96982.56;4940578;29;20050;-72
2024/01/14 01:12:48;;;;;;;0.95;0.95;;;;;;;-1.42;88.58;96968.94;4938261;29;20040;-73
2024/01/14 01:15:16;;;;;;;0.28;0.28;;;;;;;-1.41;88.67;96978.44;4936848;28;20351;-73
2024/01/14 01:17:45;;;;;;;1.02;1.02;;;;;;;-1.39;88.59;96973.91;4937736;29;20491;-73
2024/01/14 01:20:12;;;;;;;0.93;0.93;;;;;;;-1.39;88.30;96975.69;4939122;29;20515;-73
2024/01/14 01:22:39;;;;;;;1.10;1.10;;;;;;;-1.35;88.12;96967.41;4933839;29;20052;-72
2024/01/14 01:25:10;;;;;;;0.88;0.88;;;;;;;-1.27;87.69;96972.81;4936233;28;20052;-73
2024/01/14 01:27:37;;;;;;;1.50;1.50;;;;;;;-1.29;87.83;96972.13;4948941;29;20047;-72
2024/01/14 01:30:06;;;;;;;1.00;1.00;;;;;;;-1.29;87.53;96966.06;4947686;29;20083;-73
2024/01/14 01:32:34;;;;;;;0.40;0.40;;;;;;;-1.30;87.70;96965.22;4913130;29;20462;-72
2024/01/14 01:35:04;;;;;;;1.35;1.35;;;;;;;-1.24;87.95;96971.69;4935808;28;20052;-72
2024/01/14 01:37:32;;;;;;;1.23;1.23;;;;;;;-1.29;88.01;96966.06;4945521;29;20277;-72
2024/01/14 01:39:59;;;;;;;0.95;0.95;;;;;;;-1.30;88.01;96972.25;4933014;29;20056;-72
2024/01/14 01:42:27;;;;;;;1.00;1.00;;;;;;;-1.30;87.99;96978.31;4932574;29;20058;-72
2024/01/14 01:44:55;;;;;;;1.08;1.08;;;;;;;-1.28;88.29;96978.19;4936782;29;20178;-72
2024/01/14 01:47:23;;;;;;;0.95;0.95;;;;;;;-1.28;88.25;96965.09;4935381;29;20051;-73
2024/01/14 01:49:50;;;;;;;1.10;1.10;;;;;;;-1.28;87.82;96968.53;4936202;29;20046;-72
2024/01/14 01:52:19;;;;;;;1.25;1.25;;;;;;;-1.29;88.15;96966.06;4933592;29;20119;-71
2024/01/14 01:54:49;;;;;;;0.80;0.80;;;;;;;-1.31;88.29;96954.91;4936489;29;20134;-72
2024/01/14 01:57:17;;;;;;;0.95;0.95;;;;;;;-1.28;88.04;96959.88;4936675;29;20503;-72
2024/01/14 01:59:46;;;;;;;0.90;0.90;;;;;;;-1.23;88.00;96947.19;4952498;29;20062;-73
2024/01/14 02:02:14;;;;;;;1.17;1.17;;;;;;;-1.28;88.41;96937.13;4927584;29;20563;-72
2024/01/14 02:04:42;;;;;;;1.27;1.27;;;;;;;-1.29;88.50;96938.09;4935673;29;20044;-72
2024/01/14 02:07:09;;;;;;;0.98;0.98;;;;;;;-1.20;87.98;96924.19;4930090;29;20091;-72
2024/01/14 02:09:39;;;;;;;0.40;0.40;;;;;;;-1.21;87.74;96932.16;4950133;29;20078;-73
2024/01/14 02:12:07;;;;;;;1.35;1.35;;;;;;;-1.25;87.95;96936.88;4939266;28;20159;-73
2024/01/14 02:14:34;;;;;;;0.35;0.35;;;;;;;-1.28;88.00;96921.44;4942321;29;20423;-73
2024/01/14 02:17:02;;;;;;;1.20;1.20;;;;;;;-1.26;87.87;96922.13;4953888;28;20066;-72
2024/01/14 02:19:29;;;;;;;0.30;0.30;;;;;;;-1.23;88.21;96923.63;4944403;29;20043;-73
2024/01/14 02:22:00;;;;;;;1.27;1.27;;;;;;;-1.30;88.16;96919.91;4936389;29;20127;-73
2024/01/14 02:24:31;;;;;;;1.33;1.33;;;;;;;-1.31;88.23;96911.22;4936712;29;20079;-73
2024/01/14 02:26:58;;;;;;;0.30;0.30;;;;;;;-1.35;88.64;96895.97;4936202;29;20111;-73
2024/01/14 02:29:28;;;;;;;1.33;1.33;;;;;;;-1.28;88.14;96891.81;4936295;29;20048;-73
2024/01/14 02:31:56;;;;;;;1.13;1.13;;;;;;;-1.30;88.09;96891.13;4950137;29;20059;-74
2024/01/14 02:34:23;;;;;;;1.05;1.05;;;;;;;-1.35;88.41;96881.06;4939697;29;20239;-72
2024/01/14 02:36:52;;;;;;;0.80;0.80;;;;;;;-1.30;88.36;96893.75;4945841;29;20039;-73
2024/01/14 02:39:19;;;;;;;1.23;1.23;;;;;;;-1.33;88.53;96892.22;4946151;29;20123;-72
2024/01/14 02:41:48;;;;;;;0.95;0.95;;;;;;;-1.31;88.60;96898.16;4937670;29;20048;-72
2024/01/14 02:44:16;;;;;;;1.13;1.13;;;;;;;-1.36;88.57;96884.66;4940034;29;20048;-72
2024/01/14 02:46:44;;;;;;;1.10;1.10;;;;;;;-1.34;88.44;96884.50;4940578;28;20043;-73
2024/01/14 02:49:11;;;;;;;0.85;0.85;;;;;;;-1.35;88.45;96899.38;4944315;29;20050;-72
2024/01/14 02:51:39;;;;;;;1.35;1.35;;;;;;;-1.33;88.40;96899.25;4937980;29;20051;-72
2024/01/14 02:54:07;;;;;;;1.00;1.00;;;;;;;-1.35;88.32;96888.13;4941842;29;20047;-72
2024/01/14 02:56:35;;;;;;;1.25;1.25;;;;;;;-1.35;88.55;96890.72;4937088;29;20047;-72
2024/01/14 02:59:04;;;;;;;0.30;0.30;;;;;;;-1.36;88.57;96876.81;4944664;29;20373;-73
2024/01/14 03:01:32;;;;;;;0.30;0.30;;;;;;;-1.33;88.45;96880.94;4939301;29;20051;-73
2024/01/14 03:03:59;;;;;;;0.85;0.85;;;;;;;-1.36;88.17;96874.19;4941490;29;20060;-72
2024/01/14 03:06:27;;;;;;;1.15;1.15;;;;;;;-1.34;88.30;96874.03;4928738;29;20062;-72
2024/01/14 03:08:55;;;;;;;1.23;1.23;;;;;;;-1.32;88.29;96875.56;4937907;29;20071;-72
2024/01/14 03:11:22;;;;;;;1.98;1.98;;;;;;;-1.34;88.06;96872.25;4939349;29;20143;-72
2024/01/14 03:13:50;;;;;;;1.15;1.15;;;;;;;-1.24;88.07;96873.06;4938910;29;20054;-72
2024/01/14 03:16:19;;;;;;;0.50;0.50;;;;;;;-1.26;87.92;96868.97;4917999;29;20520;-72
2024/01/14 03:18:47;;;;;;;1.10;1.10;;;;;;;-1.31;87.98;96858.06;4935099;29;20055;-72
2024/01/14 03:21:18;;;;;;;1.08;1.08;;;;;;;-1.34;88.45;96851.31;4936187;29;20040;-72
2024/01/14 03:23:45;;;;;;;0.35;0.35;;;;;;;-1.35;88.45;96847.03;4940345;29;20125;-72
2024/01/14 03:26:13;;;;;;;1.23;1.23;;;;;;;-1.37;88.48;96838.53;4945135;29;20062;-72
2024/01/14 03:28:40;;;;;;;1.00;1.00;;;;;;;-1.34;88.61;96858.34;4934149;29;20127;-72
2024/01/14 03:31:08;;;;;;;1.27;1.27;;;;;;;-1.33;88.56;96852.97;4934873;29;20055;-72
2024/01/14 03:33:37;;;;;;;0.22;0.22;;;;;;;-1.32;88.62;96853.78;4935141;29;20135;-72
2024/01/14 03:36:05;;;;;;;0.45;0.45;;;;;;;-1.36;88.58;96848.03;4937187;29;20067;-73
2024/01/14 03:38:33;;;;;;;0.30;0.30;;;;;;;-1.37;88.71;96842.94;4942961;29;20066;-71
2024/01/14 03:41:00;;;;;;;0.93;0.93;;;;;;;-1.36;88.32;96845.41;4933898;29;20058;-74
2024/01/14 03:43:28;;;;;;;0.20;0.20;;;;;;;-1.40;88.51;96823.09;4929574;29;20036;-73
2024/01/14 03:45:56;;;;;;;1.08;1.08;;;;;;;-1.42;88.87;96825.03;4916876;29;20056;-73
2024/01/14 03:48:24;;;;;;;0.40;0.40;;;;;;;-1.39;88.61;96816.91;4935625;29;20385;-73
2024/01/14 03:50:53;;;;;;;0.30;0.30;;;;;;;-1.44;88.76;96818.28;4946411;29;20373;-74
2024/01/14 03:53:20;;;;;;;1.10;1.10;;;;;;;-1.45;88.60;96808.81;4934242;29;20110;-73
2024/01/14 03:55:48;;;;;;;0.95;0.95;;;;;;;-1.41;88.67;96816.22;4935292;29;20044;-73
2024/01/14 03:58:15;;;;;;;1.23;1.23;;;;;;;-1.41;88.59;96808.34;4934522;29;20249;-73
2024/01/14 04:00:43;;;;;;;1.08;1.08;;;;;;;-1.36;88.46;96815.81;4935620;29;20032;-73
2024/01/14 04:03:11;;;;;;;1.25;1.25;;;;;;;-1.41;88.70;96818.81;4936351;29;20061;-72
2024/01/14 04:05:39;;;;;;;1.00;1.00;;;;;;;-1.43;89.02;96810.28;4933632;29;20047;-72
2024/01/14 04:08:07;;;;;;;1.00;1.00;;;;;;;-1.43;89.01;96805.06;4934460;29;20563;-73
2024/01/14 04:10:35;;;;;;;0.88;0.88;;;;;;;-1.42;89.08;96804.09;4934339;29;20047;-72
2024/01/14 04:13:03;;;;;;;1.30;1.30;;;;;;;-1.40;89.07;96803.97;4934205;29;20084;-72
2024/01/14 04:15:30;;;;;;;1.30;1.30;;;;;;;-1.37;88.61;96809.75;4933696;29;20043;-72
2024/01/14 04:17:58;;;;;;;0.30;0.30;;;;;;;-1.37;88.45;96809.75;4932314;29;20455;-75
2024/01/14 04:20:26;;;;;;;1.67;1.67;;;;;;;-1.41;88.80;96807.53;4935393;29;20036;-73
2024/01/14 04:22:53;;;;;;;1.00;1.00;;;;;;;-1.43;88.90;96815.53;4932285;29;20039;-73
2024/01/14 04:25:22;;;;;;;0.40;0.40;;;;;;;-1.41;88.73;96808.34;4929688;29;20439;-73
2024/01/14 04:27:49;;;;;;;1.00;1.00;;;;;;;-1.40;88.58;96810.00;4933856;29;20051;-73
2024/01/14 04:30:17;;;;;;;0.93;0.93;;;;;;;-1.41;88.51;96797.06;4932748;29;20070;-73
2024/01/14 04:32:45;;;;;;;1.30;1.30;;;;;;;-1.40;88.46;96802.16;4935153;29;20043;-74
2024/01/14 04:35:17;;;;;;;1.15;1.15;;;;;;;-1.38;88.90;96805.47;4934416;29;20050;-74
2024/01/14 04:37:44;;;;;;;0.50;0.50;;;;;;;-1.39;88.81;96803.81;4933716;29;20725;-73
2024/01/14 04:40:12;;;;;;;1.35;1.35;;;;;;;-1.39;88.49;96801.19;4938019;29;20044;-72
2024/01/14 04:42:41;;;;;;;1.35;1.35;;;;;;;-1.39;88.55;96793.34;4937341;29;20059;-73
2024/01/14 04:45:09;;;;;;;1.38;1.38;;;;;;;-1.39;88.26;96789.91;4942199;29;20059;-74
2024/01/14 04:47:37;;;;;;;0.82;0.82;;;;;;;-1.39;87.95;96780.28;4939692;29;20130;-74
2024/01/14 04:50:05;;;;;;;1.17;1.17;;;;;;;-1.41;88.14;96770.91;4936665;29;20130;-73
2024/01/14 04:52:33;;;;;;;0.85;0.85;;;;;;;-1.38;88.24;96786.34;4945667;29;20055;-74
2024/01/14 04:55:00;;;;;;;1.38;1.38;;;;;;;-1.41;88.19;96786.59;4951627;28;20043;-73
2024/01/14 04:57:28;;;;;;;1.13;1.13;;;;;;;-1.40;88.17;96786.47;4942712;29;20071;-74
2024/01/14 04:59:57;;;;;;;1.00;1.00;;;;;;;-1.42;88.20;96777.94;4936574;29;20051;-74
2024/01/14 05:02:25;;;;;;;1.13;1.13;;;;;;;-1.35;87.92;96778.22;4946290;29;20106;-74
2024/01/14 05:04:52;;;;;;;0.98;0.98;;;;;;;-1.44;88.24;96779.03;4935979;29;20480;-73
2024/01/14 05:07:20;;;;;;;1.05;1.05;;;;;;;-1.41;88.20;96783.97;4934925;29;20059;-74
2024/01/14 05:09:48;;;;;;;1.05;1.05;;;;;;;-1.41;87.83;96784.81;4934290;29;20071;-74
2024/01/14 05:12:15;;;;;;;1.10;1.10;;;;;;;-1.40;88.07;96780.41;4941817;29;20047;-74
2024/01/14 05:14:43;;;;;;;1.20;1.20;;;;;;;-1.42;87.96;96775.31;4942349;29;20118;-73
2024/01/14 05:17:12;;;;;;;1.65;1.65;;;;;;;-1.46;88.04;96773.97;4933992;29;20070;-74
2024/01/14 05:19:40;;;;;;;1.05;1.05;;;;;;;-1.48;87.74;96770.66;4939526;29;20099;-74
2024/01/14 05:22:08;;;;;;;1.10;1.10;;;;;;;-1.50;87.97;96762.94;4940324;29;20040;-74
2024/01/14 05:24:35;;;;;;;1.50;1.50;;;;;;;-1.42;87.68;96758.78;4943635;29;20142;-74
2024/01/14 05:27:04;;;;;;;1.35;1.35;;;;;;;-1.45;88.04;96756.47;4935571;29;20058;-74
2024/01/14 05:29:32;;;;;;;1.38;1.38;;;;;;;-1.49;87.72;96753.31;4918140;29;20106;-74
2024/01/14 05:31:59;;;;;;;0.80;0.80;;;;;;;-1.49;87.90;96759.38;4935649;29;20044;-73
2024/01/14 05:34:28;;;;;;;1.45;1.45;;;;;;;-1.48;87.74;96753.16;4940572;29;20051;-73
2024/01/14 05:36:56;;;;;;;1.25;1.25;;;;;;;-1.46;87.51;96762.66;4937774;28;20059;-74
2024/01/14 05:39:24;;;;;;;0.30;0.30;;;;;;;-1.45;87.75;96770.34;4935691;29;20410;-73
2024/01/14 05:41:51;;;;;;;1.00;1.00;;;;;;;-1.45;87.51;96759.88;4937650;29;20075;-73
2024/01/14 05:44:19;;;;;;;1.08;1.08;;;;;;;-1.46;87.33;96745.19;4936992;29;20126;-73
2024/01/14 05:46:46;;;;;;;0.85;0.85;;;;;;;-1.42;87.29;96740.47;4938815;29;20044;-73
2024/01/14 05:49:14;;;;;;;1.42;1.42;;;;;;;-1.41;87.43;96753.41;4937390;29;20047;-74
2024/01/14 05:51:43;;;;;;;0.90;0.90;;;;;;;-1.44;87.43;96756.31;4942380;29;20507;-73
2024/01/14 05:54:11;;;;;;;0.95;0.95;;;;;;;-1.41;87.41;96753.41;4932028;29;20044;-73
2024/01/14 05:56:38;;;;;;;0.47;0.47;;;;;;;-1.43;87.31;96763.19;4934564;29;20426;-72
2024/01/14 05:59:06;;;;;;;1.08;1.08;;;;;;;-1.45;87.58;96746.81;4933934;29;20523;-72
2024/01/14 06:01:33;;;;;;;1.05;1.05;;;;;;;-1.47;87.60;96756.59;4935237;29;20113;-72
2024/01/14 06:04:01;;;;;;;1.08;1.08;;;;;;;-1.46;87.97;96747.78;4938267;29;20075;-72
2024/01/14 06:06:29;;;;;;;1.13;1.13;;;;;;;-1.49;87.99;96759.38;4951502;29;20054;-73
2024/01/14 06:08:58;;;;;;;1.67;1.67;;;;;;;-1.46;87.82;96758.25;4933956;29;20124;-73
2024/01/14 06:11:25;;;;;;;1.20;1.10;;;;;;;-1.49;87.78;96761.97;4936540;29;20126;-73
2024/01/14 06:13:53;;;;;;;1.55;1.55;;;;;;;-1.48;88.11;96760.19;4947039;29;20049;-72
2024/01/14 06:16:21;;;;;;;1.35;1.35;;;;;;;-1.47;87.56;96754.00;4939388;29;20078;-73
2024/01/14 06:18:48;;;;;;;0.30;0.30;;;;;;;-1.47;87.83;96740.91;4949384;29;20392;-72
2024/01/14 06:21:16;;;;;;;1.35;1.35;;;;;;;-1.48;87.80;96757.56;4938181;29;20044;-73
2024/01/14 06:23:44;;;;;;;0.98;0.98;;;;;;;-1.47;87.75;96751.38;4942239;29;20043;-72
2024/01/14 06:26:16;;;;;;;1.13;1.13;;;;;;;-1.49;87.71;96754.13;4943777;28;20052;-72
2024/01/14 06:28:45;;;;;;;0.95;0.95;;;;;;;-1.45;87.57;96746.00;4938949;29;20449;-72
2024/01/14 06:31:16;;;;;;;1.45;1.45;;;;;;;-1.44;87.20;96739.78;4936212;29;20051;-72
2024/01/14 06:33:44;;;;;;;0.90;0.90;;;;;;;-1.46;87.51;96753.03;4937687;29;20579;-73
2024/01/14 06:36:12;;;;;;;1.20;1.20;;;;;;;-1.42;87.26;96743.09;4935572;29;20067;-72
2024/01/14 06:38:40;;;;;;;0.95;0.95;;;;;;;-1.40;87.27;96742.00;4935103;29;20046;-73
2024/01/14 06:41:08;;;;;;;1.33;1.33;;;;;;;-1.41;87.20;96753.41;4935849;29;20071;-75
2024/01/14 06:43:39;;;;;;;1.33;1.33;;;;;;;-1.34;87.09;96751.03;4934928;29;20047;-72
2024/01/14 06:46:07;;;;;;;1.17;1.17;;;;;;;-1.39;86.96;96748.88;4936472;29;20102;-72
2024/01/14 06:48:35;;;;;;;1.08;1.08;;;;;;;-1.40;86.72;96746.41;4944184;29;20067;-73
2024/01/14 06:51:03;;;;;;;0.40;0.40;;;;;;;-1.34;86.90;96749.25;4930719;29;20489;-73
2024/01/14 06:53:31;;;;;;;1.08;1.08;;;;;;;-1.37;86.78;96741.72;4944088;29;20047;-72
2024/01/14 06:55:58;;;;;;;1.17;1.17;;;;;;;-1.33;86.23;96740.44;4937185;29;20063;-72
2024/01/14 06:58:26;;;;;;;0.38;0.38;;;;;;;-1.32;86.10;96744.72;4934367;29;20432;-74
2024/01/14 07:00:55;;;;;;;0.28;0.28;;;;;;;-1.33;86.28;96742.22;4943878;29;20427;-75
2024/01/14 07:03:22;;;;;;;0.60;0.60;;;;;;;-1.34;86.04;96743.19;4948635;29;20495;-75
2024/01/14 07:05:50;;;;;;;0.98;0.98;;;;;;;-1.35;86.38;96752.84;4939446;29;20095;-75
2024/01/14 07:08:18;;;;;;;1.15;1.15;;;;;;;-1.36;86.30;96742.53;4940094;29;20040;-73
2024/01/14 07:10:46;;;;;;;1.13;1.13;;;;;;;-1.36;86.23;96748.59;4938646;29;20067;-73
2024/01/14 07:13:13;;;;;;;1.75;1.75;;;;;;;-1.31;86.21;96750.78;4939796;29;20483;-73
2024/01/14 07:15:41;;;;;;;1.15;1.15;;;;;;;-1.29;86.19;96754.91;4934675;29;20067;-74
2024/01/14 07:18:10;;;;;;;0.85;0.85;;;;;;;-1.34;86.25;96751.88;4937040;29;20055;-72
2024/01/14 07:20:42;;;;;;;1.30;1.30;;;;;;;-1.34;86.27;96757.09;4928984;29;20054;-73
2024/01/14 07:23:09;;;;;;;1.30;1.30;;;;;;;-1.33;86.11;96747.47;4933411;29;20047;-72
2024/01/14 07:25:57;;;;;;;1.05;1.05;;;;;;;-1.29;86.61;96748.84;4932082;29;20083;-74
2024/01/14 07:28:24;;;;;;;1.02;1.02;;;;;;;-1.33;86.43;96752.69;4933288;29;20138;-73
2024/01/14 07:30:52;;;;;;;0.90;0.90;;;;;;;-1.37;86.61;96749.56;4934715;29;20039;-72
2024/01/14 07:33:21;;;;;;;1.23;1.23;;;;;;;-1.35;86.56;96767.75;4944367;29;20058;-73
2024/01/14 07:35:48;;;;;;;1.30;1.30;;;;;;;-1.32;86.37;96757.78;4934672;29;20057;-73
2024/01/14 07:38:16;;;;;;;1.00;1.00;;;;;;;-1.36;86.09;96759.06;4940751;29;20051;-72
2024/01/14 07:40:44;;;;;;;1.73;1.73;;;;;;;-1.36;86.65;96753.84;4935811;29;20066;-72
2024/01/14 07:43:11;;;;;;;1.08;1.08;;;;;;;-1.34;86.52;96758.91;4934849;29;20488;-71
2024/01/14 07:45:39;;;;;;;1.10;1.10;;;;;;;-1.34;86.46;96762.34;4929881;29;20048;-72
2024/01/14 07:48:06;;;;;;;1.23;1.23;;;;;;;-1.31;86.27;96762.06;4923231;29;20055;-74
2024/01/14 07:50:36;;;;;;;1.02;1.02;;;;;;;-1.34;86.46;96766.75;4929634;29;20039;-72
2024/01/14 07:53:04;;;;;;;0.90;0.90;;;;;;;-1.36;86.27;96756.44;4931510;29;20108;-73
2024/01/14 07:55:31;;;;;;;1.13;1.13;;;;;;;-1.35;86.52;96750.22;4933750;29;20090;-73
2024/01/14 07:57:59;;;;;;;0.98;0.98;;;;;;;-1.29;86.56;96744.44;4933633;29;20055;-75
2024/01/14 08:00:26;;;;;;;1.17;1.17;;;;;;;-1.35;86.75;96742.38;4944091;29;20047;-75
2024/01/14 08:02:54;;;;;;;0.85;0.85;;;;;;;-1.34;86.71;96744.03;4927442;29;20064;-72
2024/01/14 08:05:22;;;;;;;0.95;0.95;;;;;;;-1.31;86.82;96748.16;4936148;29;20051;-73
2024/01/14 08:07:51;;;;;;;0.95;0.95;;;;;;;-1.30;86.89;96742.78;4930582;29;20122;-72
2024/01/14 08:10:19;;;;;;;1.40;1.40;;;;;;;-1.26;86.67;96744.16;4925690;29;20075;-73
2024/01/14 08:12:47;;;;;;;0.98;0.98;;;;;;;-1.30;86.33;96745.41;4933331;29;20048;-73
2024/01/14 08:15:15;;;;;;;1.00;1.00;;;;;;;-1.27;86.17;96734.66;4935571;29;20091;-72
2024/01/14 08:17:42;;;;;;;1.08;1.08;;;;;;;-1.23;85.90;96748.25;4939786;29;20098;-74
2024/01/14 08:20:11;;;;;;;1.10;1.10;;;;;;;-1.25;86.37;96740.56;4936835;29;20055;-73
2024/01/14 08:22:39;;;;;;;0.95;0.95;;;;;;;-1.22;86.17;96736.81;4925772;29;20510;-75
2024/01/14 08:25:09;;;;;;;1.10;1.10;;;;;;;-1.26;86.03;96732.88;4927896;29;20059;-72
2024/01/14 08:27:40;;;;;;;0.50;0.50;;;;;;;-1.22;86.22;96736.81;4937566;29;20447;-73
2024/01/14 08:30:08;;;;;;;1.15;1.15;;;;;;;-1.21;86.14;96735.88;4927197;29;20051;-72
2024/01/14 08:32:36;;;;;;;1.10;1.10;;;;;;;-1.18;86.11;96744.25;4933390;29;20098;-73
2024/01/14 08:35:05;;;;;;;0.85;0.85;;;;;;;-1.13;86.37;96736.78;4939000;29;20047;-75
2024/01/14 08:37:32;;;;;;;0.85;0.85;;;;;;;-1.10;86.09;96740.91;4928479;29;20072;-73
2024/01/14 08:40:00;;;;;;;1.63;1.63;;;;;;;-1.07;85.87;96734.59;4929739;29;20086;-73
2024/01/14 08:42:29;;;;;;;1.83;1.83;;;;;;;-1.04;85.59;96736.91;4941566;29;20039;-72
2024/01/14 08:44:57;;;;;;;1.25;1.25;;;;;;;-1.05;86.05;96738.72;4936420;29;20122;-73
2024/01/14 08:47:24;;;;;;;1.92;1.92;;;;;;;-1.06;86.31;96733.63;4933160;29;20044;-74
2024/01/14 08:49:52;;;;;;;0.88;0.88;;;;;;;-1.05;86.11;96728.25;4931807;29;20043;-72
2024/01/14 08:52:19;;;;;;;1.08;1.08;;;;;;;-1.06;85.96;96731.81;4934069;29;20448;-73
2024/01/14 08:54:47;;;;;;;0.95;0.95;;;;;;;-1.03;85.99;96728.06;4929172;29;20051;-73
2024/01/14 08:57:15;;;;;;;1.00;1.00;;;;;;;-0.99;86.21;96727.66;4926348;29;20543;-73
2024/01/14 08:59:44;;;;;;;1.02;1.02;;;;;;;-0.96;85.79;96719.50;4932971;29;20499;-75
2024/01/14 09:02:11;;;;;;;1.20;1.20;;;;;;;-0.92;85.41;96720.03;4932999;29;20048;-73
2024/01/14 09:04:39;;;;;;;0.40;0.40;;;;;;;-0.87;85.46;96723.06;4932043;29;20035;-75
2024/01/14 09:07:06;;;;;;;0.98;0.98;;;;;;;-0.92;84.73;96731.34;4943452;28;20058;-73
2024/01/14 09:09:34;;;;;;;0.30;0.30;;;;;;;-0.87;84.86;96720.44;4931349;29;20468;-72
2024/01/14 09:12:03;;;;;;;1.20;1.20;;;;;;;-0.84;84.60;96722.78;4933693;29;20047;-75
2024/01/14 09:14:31;;;;;;;0.30;0.30;;;;;;;-0.81;84.34;96720.66;4940980;29;20114;-72
2024/01/14 09:17:00;;;;;;;1.27;1.27;;;;;;;-0.76;84.43;96721.06;4930838;29;20047;-75
2024/01/14 09:19:28;;;;;;;0.43;0.43;;;;;;;-0.77;84.30;96723.81;4928068;29;20392;-75
2024/01/14 09:21:56;;;;;;;1.13;1.13;;;;;;;-0.73;84.21;96723.38;4933108;29;20044;-74
2024/01/14 09:24:25;;;;;;;1.08;1.08;;;;;;;-0.77;83.64;96727.28;4936677;29;20689;-75
2024/01/14 09:26:52;;;;;;;0.98;0.98;;;;;;;-0.76;83.74;96728.94;4935561;29;20103;-74
2024/01/14 09:29:20;;;;;;;0.95;0.95;;;;;;;-0.72;83.56;96726.81;4938023;29;20058;-74
2024/01/14 09:31:48;;;;;;;1.05;1.05;;;;;;;-0.71;83.13;96731.09;4937015;29;20511;-75
2024/01/14 09:34:17;;;;;;;1.08;1.08;;;;;;;-0.62;83.35;96735.44;4938549;29;20055;-76
2024/01/14 09:36:45;;;;;;;1.10;1.10;;;;;;;-0.61;83.37;96741.50;4944521;29;20054;-79
2024/01/14 09:39:13;;;;;;;1.08;1.08;;;;;;;-0.58;82.92;96744.66;4931106;29;20566;-76
2024/01/14 09:41:44;;;;;;;1.00;1.00;;;;;;;-0.55;82.90;96738.31;4934370;29;20043;-76
2024/01/14 09:44:15;;;;;;;1.08;1.08;;;;;;;-0.58;82.94;96742.06;4937308;29;20126;-76
2024/01/14 09:46:43;;;;;;;0.28;0.28;;;;;;;-0.56;82.98;96736.66;4937757;29;20411;-74
2024/01/14 09:49:12;;;;;;;1.10;1.10;;;;;;;-0.49;82.98;96741.16;4942306;29;20060;-75
2024/01/14 09:51:47;;;;;;;1.27;1.27;;;;;;;-0.49;83.13;96749.03;4928366;29;20091;-75
2024/01/14 09:54:16;;;;;;;1.38;1.38;;;;;;;-0.40;82.76;96740.28;4935197;29;20048;-74
2024/01/14 09:56:46;;;;;;;0.88;0.88;;;;;;;-0.46;82.96;96733.03;4937390;29;20059;-77
2024/01/14 09:59:17;;;;;;;1.15;1.15;;;;;;;-0.41;83.01;96736.00;4937602;29;20054;-77
2024/01/14 10:01:45;;;;;;;1.40;1.40;;;;;;;-0.38;82.82;96722.63;4941717;29;20067;-75
2024/01/14 10:04:16;;;;;;;1.02;1.02;;;;;;;-0.31;82.87;96725.44;4940304;29;20067;-76
2024/01/14 10:06:45;;;;;;;0.80;0.80;;;;;;;-0.27;82.66;96731.22;4934669;29;20603;-74
2024/01/14 10:09:13;;;;;;;1.38;1.38;;;;;;;-0.28;82.29;96719.09;4941542;29;20085;-74
2024/01/14 10:11:40;;;;;;;1.13;1.13;;;;;;;-0.28;82.83;96719.91;4937268;29;20050;-75
2024/01/14 10:14:08;;;;;;;0.93;0.93;;;;;;;-0.31;82.75;96717.59;4937274;29;20050;-76
2024/01/14 10:16:37;;;;;;;1.38;1.38;;;;;;;-0.28;82.92;96725.16;4936101;29;20078;-75
2024/01/14 10:19:21;;;;;;;0.50;0.50;;;;;;;-0.20;82.12;96706.06;4943987;29;20157;-74
2024/01/14 10:21:53;;;;;;;1.02;1.02;;;;;;;-0.26;82.34;96711.91;4943440;29;20047;-75
2024/01/14 10:24:40;;;;;;;1.02;1.02;;;;;;;-0.23;82.49;96711.63;4933671;29;20043;-76
2024/01/14 10:27:10;;;;;;;0.63;0.63;;;;;;;-0.24;82.87;96707.34;4933157;29;20681;-77
2024/01/14 10:29:38;;;;;;;0.85;0.85;;;;;;;-0.27;82.35;96718.13;4944563;29;20120;-75
2024/01/14 10:32:05;;;;;;;0.70;0.70;;;;;;;-0.28;83.03;96704.19;4932618;29;20047;-75
2024/01/14 10:34:33;;;;;;;1.27;1.27;;;;;;;-0.38;82.43;96703.44;4931918;29;20039;-74
2024/01/14 10:37:02;;;;;;;1.08;1.08;;;;;;;-0.39;83.12;96700.00;4937266;29;20492;-75
2024/01/14 10:39:30;;;;;;;1.02;1.02;;;;;;;-0.40;82.95;96690.47;4932355;29;20166;-74
2024/01/14 10:41:58;;;;;;;0.88;0.88;;;;;;;-0.33;82.83;96698.59;4932479;29;20044;-75
2024/01/14 10:44:26;;;;;;;0.90;0.90;;;;;;;-0.35;82.64;96697.91;4935387;29;20039;-74
2024/01/14 10:46:56;;;;;;;1.02;1.02;;;;;;;-0.31;82.69;96693.22;4935257;29;20432;-75
2024/01/14 10:49:25;;;;;;;1.10;1.10;;;;;;;-0.28;82.65;96698.13;4933918;29;20141;-74
2024/01/14 10:51:58;;;;;;;1.27;1.27;;;;;;;-0.28;82.51;96692.88;4922233;29;20055;-75
2024/01/14 10:54:33;;;;;;;1.15;1.15;;;;;;;-0.31;82.62;96682.72;4937831;29;20051;-75
2024/01/14 10:57:09;;;;;;;1.67;1.67;;;;;;;-0.38;82.45;96679.84;4932099;29;20826;-74
2024/01/14 10:59:37;;;;;;;0.40;0.40;;;;;;;-0.35;82.63;96681.34;4929199;29;20455;-74
2024/01/14 11:02:15;;;;;;;1.00;1.00;;;;;;;-0.49;82.73;96683.53;4942446;29;20066;-75
2024/01/14 11:04:44;;;;;;;1.15;1.15;;;;;;;-0.46;82.77;96670.13;4932456;29;20043;-74
2024/01/14 11:07:12;;;;;;;0.38;0.38;;;;;;;-0.51;82.60;96684.63;4941382;28;20423;-74
2024/01/14 11:09:42;;;;;;;1.15;1.15;;;;;;;-0.58;83.07;96676.56;4935297;29;20075;-74
2024/01/14 11:12:14;;;;;;;1.05;1.05;;;;;;;-0.60;83.34;96688.97;4941047;29;20075;-75
2024/01/14 11:14:48;;;;;;;1.05;1.05;;;;;;;-0.61;83.16;96673.38;4937505;29;20052;-75
2024/01/14 11:17:19;;;;;;;0.32;0.32;;;;;;;-0.71;83.80;96680.50;4936885;29;20050;-74
2024/01/14 11:19:48;;;;;;;0.88;0.88;;;;;;;-0.79;83.48;96663.72;4939360;29;20098;-75
2024/01/14 11:22:19;;;;;;;0.88;0.88;;;;;;;-0.92;84.08;96655.38;4945333;29;20051;-74
2024/01/14 11:25:03;;;;;;;0.22;0.22;;;;;;;-0.88;84.09;96659.38;4945987;29;20439;-75
2024/01/14 11:27:32;;;;;;;1.27;1.27;;;;;;;-0.91;83.92;96664.91;4941019;29;20043;-74
2024/01/14 11:30:00;;;;;;;0.90;0.90;;;;;;;-0.90;84.01;96648.22;4935816;29;20492;-75
2024/01/14 11:32:28;;;;;;;0.40;0.40;;;;;;;-0.96;84.13;96651.44;4940615;29;20389;-75
2024/01/14 11:34:59;;;;;;;0.85;0.85;;;;;;;-0.84;84.15;96652.06;4947144;28;20039;-74
2024/01/14 11:37:38;;;;;;;1.55;1.55;;;;;;;-0.89;84.20;96641.19;4936242;29;20514;-74
2024/01/14 11:40:15;;;;;;;0.98;0.98;;;;;;;-0.83;83.94;96635.38;4938621;29;20087;-75